sensor_id;sensor_type;location;lat;lon;timestamp;P1;durP1;ratioP1;P2;durP2;ratioP2
75064;SDS011;63646;49.110;9.140;2022-11-15T00:00:20;8.23;;;3.27;;
75064;SDS011;63646;49.110;9.140;2022-11-15T00:02:45;6.95;;;3.35;;
75064;SDS011;63646;49.110;9.140;2022-11-15T00:05:11;6.23;;;3.37;;
75064;SDS011;63646;49.110;9.140;2022-11-15T00:07:36;5.93;;;3.20;;
75064;SDS011;63646;49.110;9.140;2022-11-15T00:10:02;6.00;;;2.70;;
75064;SDS011;63646;49.110;9.140;2022-11-15T00:12:28;7.47;;;3.72;;
75064;SDS011;63646;49.110;9.140;2022-11-15T00:14:53;8.27;;;3.50;;
75064;SDS011;63646;49.110;9.140;2022-11-15T00:17:19;5.95;;;3.50;;
75064;SDS011;63646;49.110;9.140;2022-11-15T00:19:44;5.70;;;3.38;;
75064;SDS011;63646;49.110;9.140;2022-11-15T00:22:09;6.03;;;3.10;;
75064;SDS011;63646;49.110;9.140;2022-11-15T00:24:35;6.68;;;3.20;;
75064;SDS011;63646;49.110;9.140;2022-11-15T00:27:00;8.32;;;3.50;;
75064;SDS011;63646;49.110;9.140;2022-11-15T00:29:26;5.72;;;3.35;;
75064;SDS011;63646;49.110;9.140;2022-11-15T00:31:52;6.07;;;2.90;;
75064;SDS011;63646;49.110;9.140;2022-11-15T00:34:17;6.63;;;3.22;;
75064;SDS011;63646;49.110;9.140;2022-11-15T00:36:42;6.13;;;3.20;;
75064;SDS011;63646;49.110;9.140;2022-11-15T00:39:08;6.37;;;3.03;;
75064;SDS011;63646;49.110;9.140;2022-11-15T00:41:33;5.65;;;2.95;;
75064;SDS011;63646;49.110;9.140;2022-11-15T00:43:59;6.78;;;2.97;;
75064;SDS011;63646;49.110;9.140;2022-11-15T00:46:24;4.90;;;3.13;;
75064;SDS011;63646;49.110;9.140;2022-11-15T00:48:50;5.30;;;3.17;;
75064;SDS011;63646;49.110;9.140;2022-11-15T00:51:15;5.90;;;2.88;;
75064;SDS011;63646;49.110;9.140;2022-11-15T00:53:40;6.07;;;3.15;;
75064;SDS011;63646;49.110;9.140;2022-11-15T00:56:06;4.77;;;2.93;;
75064;SDS011;63646;49.110;9.140;2022-11-15T00:58:31;6.03;;;3.33;;
75064;SDS011;63646;49.110;9.140;2022-11-15T01:01:04;4.63;;;2.95;;
75064;SDS011;63646;49.110;9.140;2022-11-15T01:03:32;6.45;;;3.20;;
75064;SDS011;63646;49.110;9.140;2022-11-15T01:05:59;5.38;;;3.15;;
75064;SDS011;63646;49.110;9.140;2022-11-15T01:08:25;5.35;;;2.83;;
75064;SDS011;63646;49.110;9.140;2022-11-15T01:10:50;4.55;;;3.00;;
75064;SDS011;63646;49.110;9.140;2022-11-15T01:13:15;5.33;;;3.03;;
75064;SDS011;63646;49.110;9.140;2022-11-15T01:15:41;4.43;;;2.73;;
75064;SDS011;63646;49.110;9.140;2022-11-15T01:18:06;4.78;;;2.97;;
75064;SDS011;63646;49.110;9.140;2022-11-15T01:20:32;4.38;;;2.75;;
75064;SDS011;63646;49.110;9.140;2022-11-15T01:22:57;4.90;;;2.60;;
75064;SDS011;63646;49.110;9.140;2022-11-15T01:25:23;5.93;;;2.65;;
75064;SDS011;63646;49.110;9.140;2022-11-15T01:27:48;5.75;;;2.75;;
75064;SDS011;63646;49.110;9.140;2022-11-15T01:30:14;5.05;;;2.90;;
75064;SDS011;63646;49.110;9.140;2022-11-15T01:32:40;4.63;;;2.90;;
75064;SDS011;63646;49.110;9.140;2022-11-15T01:35:05;5.03;;;2.90;;
75064;SDS011;63646;49.110;9.140;2022-11-15T01:37:31;4.47;;;2.80;;
75064;SDS011;63646;49.110;9.140;2022-11-15T01:39:56;5.23;;;3.20;;
75064;SDS011;63646;49.110;9.140;2022-11-15T01:42:22;4.90;;;3.17;;
75064;SDS011;63646;49.110;9.140;2022-11-15T01:44:48;4.77;;;2.80;;
75064;SDS011;63646;49.110;9.140;2022-11-15T01:47:23;4.00;;;2.90;;
75064;SDS011;63646;49.110;9.140;2022-11-15T01:52:26;4.82;;;3.00;;
75064;SDS011;63646;49.110;9.140;2022-11-15T01:57:29;5.05;;;3.17;;
75064;SDS011;63646;49.110;9.140;2022-11-15T01:59:55;5.25;;;2.70;;
75064;SDS011;63646;49.110;9.140;2022-11-15T02:02:22;4.75;;;2.60;;
75064;SDS011;63646;49.110;9.140;2022-11-15T02:04:47;5.53;;;3.00;;
75064;SDS011;63646;49.110;9.140;2022-11-15T02:07:14;3.85;;;2.53;;
75064;SDS011;63646;49.110;9.140;2022-11-15T02:09:42;4.65;;;3.03;;
75064;SDS011;63646;49.110;9.140;2022-11-15T02:12:08;5.10;;;3.03;;
75064;SDS011;63646;49.110;9.140;2022-11-15T02:14:37;3.88;;;2.70;;
75064;SDS011;63646;49.110;9.140;2022-11-15T02:20:08;5.43;;;2.92;;
75064;SDS011;63646;49.110;9.140;2022-11-15T02:31:26;4.80;;;3.03;;
75064;SDS011;63646;49.110;9.140;2022-11-15T02:33:54;4.05;;;2.80;;
75064;SDS011;63646;49.110;9.140;2022-11-15T02:36:40;5.30;;;2.90;;
75064;SDS011;63646;49.110;9.140;2022-11-15T02:41:46;4.72;;;2.70;;
75064;SDS011;63646;49.110;9.140;2022-11-15T02:44:26;4.35;;;2.92;;
75064;SDS011;63646;49.110;9.140;2022-11-15T02:46:57;5.95;;;3.00;;
75064;SDS011;63646;49.110;9.140;2022-11-15T02:49:48;4.30;;;2.88;;
75064;SDS011;63646;49.110;9.140;2022-11-15T02:52:16;4.05;;;2.72;;
75064;SDS011;63646;49.110;9.140;2022-11-15T02:54:52;4.20;;;2.70;;
75064;SDS011;63646;49.110;9.140;2022-11-15T02:57:54;4.28;;;2.50;;
75064;SDS011;63646;49.110;9.140;2022-11-15T03:00:24;4.43;;;2.97;;
75064;SDS011;63646;49.110;9.140;2022-11-15T03:05:43;6.28;;;3.13;;
75064;SDS011;63646;49.110;9.140;2022-11-15T03:11:27;3.30;;;2.45;;
75064;SDS011;63646;49.110;9.140;2022-11-15T03:13:59;3.75;;;2.70;;
75064;SDS011;63646;49.110;9.140;2022-11-15T03:22:06;4.32;;;2.75;;
75064;SDS011;63646;49.110;9.140;2022-11-15T03:24:36;3.53;;;2.35;;
75064;SDS011;63646;49.110;9.140;2022-11-15T03:27:03;4.38;;;2.45;;
75064;SDS011;63646;49.110;9.140;2022-11-15T03:29:36;3.55;;;2.63;;
75064;SDS011;63646;49.110;9.140;2022-11-15T03:32:10;4.00;;;2.75;;
75064;SDS011;63646;49.110;9.140;2022-11-15T03:37:11;4.65;;;2.70;;
75064;SDS011;63646;49.110;9.140;2022-11-15T03:39:39;3.92;;;2.50;;
75064;SDS011;63646;49.110;9.140;2022-11-15T03:47:24;4.60;;;2.70;;
75064;SDS011;63646;49.110;9.140;2022-11-15T03:49:52;4.13;;;2.75;;
75064;SDS011;63646;49.110;9.140;2022-11-15T03:52:23;5.55;;;3.00;;
75064;SDS011;63646;49.110;9.140;2022-11-15T03:54:49;4.55;;;2.70;;
75064;SDS011;63646;49.110;9.140;2022-11-15T03:57:17;3.58;;;2.33;;
75064;SDS011;63646;49.110;9.140;2022-11-15T03:59:42;4.13;;;2.55;;
75064;SDS011;63646;49.110;9.140;2022-11-15T04:02:08;3.90;;;2.38;;
75064;SDS011;63646;49.110;9.140;2022-11-15T04:04:33;3.77;;;2.47;;
75064;SDS011;63646;49.110;9.140;2022-11-15T04:06:58;5.32;;;3.03;;
75064;SDS011;63646;49.110;9.140;2022-11-15T04:09:24;4.20;;;2.57;;
75064;SDS011;63646;49.110;9.140;2022-11-15T04:11:49;3.37;;;2.37;;
75064;SDS011;63646;49.110;9.140;2022-11-15T04:14:14;2.50;;;2.30;;
75064;SDS011;63646;49.110;9.140;2022-11-15T04:16:40;3.47;;;2.42;;
75064;SDS011;63646;49.110;9.140;2022-11-15T04:19:05;3.73;;;2.53;;
75064;SDS011;63646;49.110;9.140;2022-11-15T04:21:49;3.78;;;2.70;;
75064;SDS011;63646;49.110;9.140;2022-11-15T04:24:33;3.83;;;2.60;;
75064;SDS011;63646;49.110;9.140;2022-11-15T04:26:58;2.83;;;2.50;;
75064;SDS011;63646;49.110;9.140;2022-11-15T04:29:24;4.07;;;2.63;;
75064;SDS011;63646;49.110;9.140;2022-11-15T04:32:02;3.25;;;2.40;;
75064;SDS011;63646;49.110;9.140;2022-11-15T04:34:28;3.63;;;2.20;;
75064;SDS011;63646;49.110;9.140;2022-11-15T04:36:54;4.53;;;2.90;;
75064;SDS011;63646;49.110;9.140;2022-11-15T04:39:38;3.13;;;2.13;;
75064;SDS011;63646;49.110;9.140;2022-11-15T04:44:29;3.63;;;2.30;;
75064;SDS011;63646;49.110;9.140;2022-11-15T04:46:54;4.72;;;2.72;;
75064;SDS011;63646;49.110;9.140;2022-11-15T04:49:20;3.17;;;2.67;;
75064;SDS011;63646;49.110;9.140;2022-11-15T04:51:45;2.80;;;2.45;;
75064;SDS011;63646;49.110;9.140;2022-11-15T04:54:11;3.08;;;2.30;;
75064;SDS011;63646;49.110;9.140;2022-11-15T04:56:36;2.97;;;2.37;;
75064;SDS011;63646;49.110;9.140;2022-11-15T04:59:01;3.37;;;2.30;;
75064;SDS011;63646;49.110;9.140;2022-11-15T05:01:27;3.97;;;2.58;;
75064;SDS011;63646;49.110;9.140;2022-11-15T05:03:52;4.05;;;2.30;;
75064;SDS011;63646;49.110;9.140;2022-11-15T05:06:36;4.30;;;2.55;;
75064;SDS011;63646;49.110;9.140;2022-11-15T05:09:01;2.97;;;2.30;;
75064;SDS011;63646;49.110;9.140;2022-11-15T05:11:28;3.08;;;2.47;;
75064;SDS011;63646;49.110;9.140;2022-11-15T05:13:54;3.55;;;2.40;;
75064;SDS011;63646;49.110;9.140;2022-11-15T05:16:19;3.35;;;2.33;;
75064;SDS011;63646;49.110;9.140;2022-11-15T05:18:45;2.67;;;2.03;;
75064;SDS011;63646;49.110;9.140;2022-11-15T05:21:11;4.43;;;2.60;;
75064;SDS011;63646;49.110;9.140;2022-11-15T05:23:39;2.97;;;2.50;;
75064;SDS011;63646;49.110;9.140;2022-11-15T05:26:05;4.80;;;2.42;;
75064;SDS011;63646;49.110;9.140;2022-11-15T05:28:31;3.05;;;2.30;;
75064;SDS011;63646;49.110;9.140;2022-11-15T05:31:04;4.03;;;2.30;;
75064;SDS011;63646;49.110;9.140;2022-11-15T05:33:34;3.63;;;2.30;;
75064;SDS011;63646;49.110;9.140;2022-11-15T05:36:05;3.58;;;2.40;;
75064;SDS011;63646;49.110;9.140;2022-11-15T05:38:37;5.10;;;2.75;;
75064;SDS011;63646;49.110;9.140;2022-11-15T05:41:02;3.22;;;2.47;;
75064;SDS011;63646;49.110;9.140;2022-11-15T05:43:30;3.00;;;2.33;;
75064;SDS011;63646;49.110;9.140;2022-11-15T05:46:00;4.00;;;2.38;;
75064;SDS011;63646;49.110;9.140;2022-11-15T05:48:28;2.90;;;2.10;;
75064;SDS011;63646;49.110;9.140;2022-11-15T05:50:54;3.67;;;2.45;;
75064;SDS011;63646;49.110;9.140;2022-11-15T05:53:20;3.35;;;2.22;;
75064;SDS011;63646;49.110;9.140;2022-11-15T05:55:48;3.90;;;2.60;;
75064;SDS011;63646;49.110;9.140;2022-11-15T05:58:14;3.00;;;2.50;;
75064;SDS011;63646;49.110;9.140;2022-11-15T06:00:40;4.82;;;2.45;;
75064;SDS011;63646;49.110;9.140;2022-11-15T06:03:05;4.32;;;2.33;;
75064;SDS011;63646;49.110;9.140;2022-11-15T06:05:30;3.88;;;2.28;;
75064;SDS011;63646;49.110;9.140;2022-11-15T06:10:47;4.43;;;2.42;;
75064;SDS011;63646;49.110;9.140;2022-11-15T06:13:13;3.57;;;2.50;;
75064;SDS011;63646;49.110;9.140;2022-11-15T06:15:38;3.70;;;2.20;;
75064;SDS011;63646;49.110;9.140;2022-11-15T06:18:03;3.33;;;2.08;;
75064;SDS011;63646;49.110;9.140;2022-11-15T06:20:29;4.80;;;2.60;;
75064;SDS011;63646;49.110;9.140;2022-11-15T06:22:58;2.80;;;2.20;;
75064;SDS011;63646;49.110;9.140;2022-11-15T06:25:24;8.43;;;2.53;;
75064;SDS011;63646;49.110;9.140;2022-11-15T06:27:51;5.03;;;2.13;;
75064;SDS011;63646;49.110;9.140;2022-11-15T06:30:19;4.13;;;2.22;;
75064;SDS011;63646;49.110;9.140;2022-11-15T06:32:45;4.88;;;2.50;;
75064;SDS011;63646;49.110;9.140;2022-11-15T06:35:10;5.25;;;2.22;;
75064;SDS011;63646;49.110;9.140;2022-11-15T06:37:36;5.50;;;2.38;;
75064;SDS011;63646;49.110;9.140;2022-11-15T06:40:01;6.95;;;2.33;;
75064;SDS011;63646;49.110;9.140;2022-11-15T06:42:27;4.38;;;2.38;;
75064;SDS011;63646;49.110;9.140;2022-11-15T06:44:52;4.68;;;2.50;;
75064;SDS011;63646;49.110;9.140;2022-11-15T06:47:18;5.10;;;2.83;;
75064;SDS011;63646;49.110;9.140;2022-11-15T06:49:43;7.03;;;2.63;;
75064;SDS011;63646;49.110;9.140;2022-11-15T06:52:08;4.40;;;2.50;;
75064;SDS011;63646;49.110;9.140;2022-11-15T06:54:34;4.20;;;2.30;;
75064;SDS011;63646;49.110;9.140;2022-11-15T06:56:59;4.00;;;2.27;;
75064;SDS011;63646;49.110;9.140;2022-11-15T06:59:25;3.60;;;2.20;;
75064;SDS011;63646;49.110;9.140;2022-11-15T07:01:50;5.17;;;2.23;;
75064;SDS011;63646;49.110;9.140;2022-11-15T07:04:15;5.83;;;2.90;;
75064;SDS011;63646;49.110;9.140;2022-11-15T07:06:41;15.75;;;8.40;;
75064;SDS011;63646;49.110;9.140;2022-11-15T07:09:06;9.70;;;4.77;;
75064;SDS011;63646;49.110;9.140;2022-11-15T07:11:32;7.60;;;3.80;;
75064;SDS011;63646;49.110;9.140;2022-11-15T07:16:24;6.55;;;4.32;;
75064;SDS011;63646;49.110;9.140;2022-11-15T07:18:49;8.85;;;4.93;;
75064;SDS011;63646;49.110;9.140;2022-11-15T07:21:15;7.17;;;4.60;;
75064;SDS011;63646;49.110;9.140;2022-11-15T07:23:40;8.07;;;3.92;;
75064;SDS011;63646;49.110;9.140;2022-11-15T07:26:06;9.90;;;4.20;;
75064;SDS011;63646;49.110;9.140;2022-11-15T07:30:57;14.20;;;4.28;;
75064;SDS011;63646;49.110;9.140;2022-11-15T07:33:23;9.52;;;4.03;;
75064;SDS011;63646;49.110;9.140;2022-11-15T07:35:48;11.07;;;4.00;;
75064;SDS011;63646;49.110;9.140;2022-11-15T07:38:14;8.38;;;3.70;;
75064;SDS011;63646;49.110;9.140;2022-11-15T07:40:40;9.63;;;4.30;;
75064;SDS011;63646;49.110;9.140;2022-11-15T07:43:06;9.48;;;4.05;;
75064;SDS011;63646;49.110;9.140;2022-11-15T07:45:33;8.77;;;4.15;;
75064;SDS011;63646;49.110;9.140;2022-11-15T07:47:59;9.23;;;3.92;;
75064;SDS011;63646;49.110;9.140;2022-11-15T07:50:25;11.70;;;3.80;;
75064;SDS011;63646;49.110;9.140;2022-11-15T07:52:56;9.93;;;3.80;;
75064;SDS011;63646;49.110;9.140;2022-11-15T07:55:23;6.10;;;3.55;;
75064;SDS011;63646;49.110;9.140;2022-11-15T07:57:50;6.07;;;3.45;;
75064;SDS011;63646;49.110;9.140;2022-11-15T08:00:15;8.20;;;3.58;;
75064;SDS011;63646;49.110;9.140;2022-11-15T08:02:41;7.95;;;3.50;;
75064;SDS011;63646;49.110;9.140;2022-11-15T08:05:07;7.38;;;3.72;;
75064;SDS011;63646;49.110;9.140;2022-11-15T08:07:32;7.28;;;3.33;;
75064;SDS011;63646;49.110;9.140;2022-11-15T08:09:58;7.00;;;3.42;;
75064;SDS011;63646;49.110;9.140;2022-11-15T08:12:25;7.38;;;3.55;;
75064;SDS011;63646;49.110;9.140;2022-11-15T08:14:52;7.90;;;3.15;;
75064;SDS011;63646;49.110;9.140;2022-11-15T08:17:17;9.48;;;3.38;;
75064;SDS011;63646;49.110;9.140;2022-11-15T08:19:42;5.45;;;3.08;;
75064;SDS011;63646;49.110;9.140;2022-11-15T08:22:08;6.90;;;3.08;;
75064;SDS011;63646;49.110;9.140;2022-11-15T08:24:33;6.72;;;3.00;;
75064;SDS011;63646;49.110;9.140;2022-11-15T08:26:59;6.40;;;3.45;;
75064;SDS011;63646;49.110;9.140;2022-11-15T08:29:24;5.43;;;2.88;;
75064;SDS011;63646;49.110;9.140;2022-11-15T08:31:50;6.20;;;3.10;;
75064;SDS011;63646;49.110;9.140;2022-11-15T08:34:15;6.00;;;2.85;;
75064;SDS011;63646;49.110;9.140;2022-11-15T08:36:41;7.95;;;3.80;;
75064;SDS011;63646;49.110;9.140;2022-11-15T08:39:09;8.87;;;3.60;;
75064;SDS011;63646;49.110;9.140;2022-11-15T08:41:36;5.85;;;3.28;;
75064;SDS011;63646;49.110;9.140;2022-11-15T08:44:02;6.07;;;2.90;;
75064;SDS011;63646;49.110;9.140;2022-11-15T08:46:28;5.18;;;2.65;;
75064;SDS011;63646;49.110;9.140;2022-11-15T08:48:55;7.10;;;3.35;;
75064;SDS011;63646;49.110;9.140;2022-11-15T08:51:20;6.00;;;3.20;;
75064;SDS011;63646;49.110;9.140;2022-11-15T08:53:45;8.35;;;3.58;;
75064;SDS011;63646;49.110;9.140;2022-11-15T08:56:12;7.65;;;2.65;;
75064;SDS011;63646;49.110;9.140;2022-11-15T08:58:38;4.93;;;2.55;;
75064;SDS011;63646;49.110;9.140;2022-11-15T09:01:04;5.53;;;2.78;;
75064;SDS011;63646;49.110;9.140;2022-11-15T09:03:30;8.65;;;3.67;;
75064;SDS011;63646;49.110;9.140;2022-11-15T09:05:56;8.05;;;3.03;;
75064;SDS011;63646;49.110;9.140;2022-11-15T09:08:22;5.70;;;2.50;;
75064;SDS011;63646;49.110;9.140;2022-11-15T09:10:48;5.20;;;2.80;;
75064;SDS011;63646;49.110;9.140;2022-11-15T09:13:14;6.90;;;2.78;;
75064;SDS011;63646;49.110;9.140;2022-11-15T09:15:39;6.47;;;2.85;;
75064;SDS011;63646;49.110;9.140;2022-11-15T09:18:05;7.68;;;2.75;;
75064;SDS011;63646;49.110;9.140;2022-11-15T09:20:30;5.67;;;2.70;;
75064;SDS011;63646;49.110;9.140;2022-11-15T09:22:59;7.15;;;2.58;;
75064;SDS011;63646;49.110;9.140;2022-11-15T09:25:28;6.97;;;3.42;;
75064;SDS011;63646;49.110;9.140;2022-11-15T09:27:54;5.32;;;3.00;;
75064;SDS011;63646;49.110;9.140;2022-11-15T09:30:20;5.45;;;2.67;;
75064;SDS011;63646;49.110;9.140;2022-11-15T09:32:45;5.38;;;2.70;;
75064;SDS011;63646;49.110;9.140;2022-11-15T09:35:11;3.47;;;2.40;;
75064;SDS011;63646;49.110;9.140;2022-11-15T09:37:36;5.95;;;2.55;;
75064;SDS011;63646;49.110;9.140;2022-11-15T09:40:02;4.57;;;2.63;;
75064;SDS011;63646;49.110;9.140;2022-11-15T09:45:22;5.43;;;2.50;;
75064;SDS011;63646;49.110;9.140;2022-11-15T09:50:41;4.22;;;2.85;;
75064;SDS011;63646;49.110;9.140;2022-11-15T09:53:12;4.40;;;2.55;;
75064;SDS011;63646;49.110;9.140;2022-11-15T09:55:51;5.93;;;2.80;;
75064;SDS011;63646;49.110;9.140;2022-11-15T10:01:12;3.40;;;2.42;;
75064;SDS011;63646;49.110;9.140;2022-11-15T10:03:44;4.05;;;2.50;;
75064;SDS011;63646;49.110;9.140;2022-11-15T10:06:15;4.85;;;2.90;;
75064;SDS011;63646;49.110;9.140;2022-11-15T10:08:53;5.22;;;2.67;;
75064;SDS011;63646;49.110;9.140;2022-11-15T10:11:23;6.80;;;2.92;;
75064;SDS011;63646;49.110;9.140;2022-11-15T10:14:08;5.53;;;2.35;;
75064;SDS011;63646;49.110;9.140;2022-11-15T10:19:27;4.65;;;2.60;;
75064;SDS011;63646;49.110;9.140;2022-11-15T10:24:35;5.25;;;2.45;;
75064;SDS011;63646;49.110;9.140;2022-11-15T10:27:15;5.30;;;2.65;;
75064;SDS011;63646;49.110;9.140;2022-11-15T10:29:44;6.43;;;2.53;;
75064;SDS011;63646;49.110;9.140;2022-11-15T10:32:16;4.45;;;2.47;;
75064;SDS011;63646;49.110;9.140;2022-11-15T10:34:43;2.80;;;2.33;;
75064;SDS011;63646;49.110;9.140;2022-11-15T10:37:09;3.65;;;2.25;;
75064;SDS011;63646;49.110;9.140;2022-11-15T10:39:35;3.50;;;2.20;;
75064;SDS011;63646;49.110;9.140;2022-11-15T10:42:17;3.83;;;2.20;;
75064;SDS011;63646;49.110;9.140;2022-11-15T10:44:50;2.75;;;2.17;;
75064;SDS011;63646;49.110;9.140;2022-11-15T10:49:54;3.97;;;2.30;;
75064;SDS011;63646;49.110;9.140;2022-11-15T10:52:24;4.82;;;2.22;;
75064;SDS011;63646;49.110;9.140;2022-11-15T10:54:53;4.32;;;2.63;;
75064;SDS011;63646;49.110;9.140;2022-11-15T10:57:24;4.40;;;2.60;;
75064;SDS011;63646;49.110;9.140;2022-11-15T11:00:36;3.95;;;2.78;;
75064;SDS011;63646;49.110;9.140;2022-11-15T11:02:55;4.50;;;2.42;;
75064;SDS011;63646;49.110;9.140;2022-11-15T11:05:39;5.03;;;2.53;;
75064;SDS011;63646;49.110;9.140;2022-11-15T11:10:57;5.90;;;2.50;;
75064;SDS011;63646;49.110;9.140;2022-11-15T11:13:25;9.20;;;2.47;;
75064;SDS011;63646;49.110;9.140;2022-11-15T11:37:29;7.28;;;2.83;;
75064;SDS011;63646;49.110;9.140;2022-11-15T11:48:43;8.52;;;3.08;;
75064;SDS011;63646;49.110;9.140;2022-11-15T11:56:22;7.68;;;2.55;;
75064;SDS011;63646;49.110;9.140;2022-11-15T11:58:48;7.43;;;2.97;;
75064;SDS011;63646;49.110;9.140;2022-11-15T12:01:22;7.70;;;3.00;;
75064;SDS011;63646;49.110;9.140;2022-11-15T12:03:58;6.25;;;3.30;;
75064;SDS011;63646;49.110;9.140;2022-11-15T12:09:02;10.95;;;3.05;;
75064;SDS011;63646;49.110;9.140;2022-11-15T12:11:49;8.75;;;3.20;;
75064;SDS011;63646;49.110;9.140;2022-11-15T12:17:29;9.63;;;3.03;;
75064;SDS011;63646;49.110;9.140;2022-11-15T12:20:00;6.10;;;2.50;;
75064;SDS011;63646;49.110;9.140;2022-11-15T12:22:43;5.45;;;2.50;;
75064;SDS011;63646;49.110;9.140;2022-11-15T12:30:16;7.25;;;2.70;;
75064;SDS011;63646;49.110;9.140;2022-11-15T12:32:51;6.55;;;2.78;;
75064;SDS011;63646;49.110;9.140;2022-11-15T12:35:21;7.85;;;2.85;;
75064;SDS011;63646;49.110;9.140;2022-11-15T12:37:48;8.43;;;2.75;;
75064;SDS011;63646;49.110;9.140;2022-11-15T12:45:39;9.10;;;2.67;;
75064;SDS011;63646;49.110;9.140;2022-11-15T12:58:40;6.45;;;2.40;;
75064;SDS011;63646;49.110;9.140;2022-11-15T13:01:10;4.95;;;2.83;;
75064;SDS011;63646;49.110;9.140;2022-11-15T13:06:52;5.68;;;2.25;;
75064;SDS011;63646;49.110;9.140;2022-11-15T13:28:00;9.25;;;2.67;;
75064;SDS011;63646;49.110;9.140;2022-11-15T13:30:28;8.80;;;3.40;;
75064;SDS011;63646;49.110;9.140;2022-11-15T13:32:56;8.32;;;3.13;;
75064;SDS011;63646;49.110;9.140;2022-11-15T13:35:27;7.10;;;2.70;;
75064;SDS011;63646;49.110;9.140;2022-11-15T13:37:54;5.20;;;2.20;;
75064;SDS011;63646;49.110;9.140;2022-11-15T13:42:52;5.90;;;2.33;;
75064;SDS011;63646;49.110;9.140;2022-11-15T13:45:18;6.07;;;2.65;;
75064;SDS011;63646;49.110;9.140;2022-11-15T13:47:44;6.00;;;2.45;;
75064;SDS011;63646;49.110;9.140;2022-11-15T13:50:15;5.75;;;2.40;;
75064;SDS011;63646;49.110;9.140;2022-11-15T13:52:41;6.68;;;2.50;;
75064;SDS011;63646;49.110;9.140;2022-11-15T14:03:12;7.10;;;2.65;;
75064;SDS011;63646;49.110;9.140;2022-11-15T14:05:40;7.72;;;3.03;;
75064;SDS011;63646;49.110;9.140;2022-11-15T14:08:39;8.00;;;2.70;;
75064;SDS011;63646;49.110;9.140;2022-11-15T14:11:08;6.88;;;2.78;;
75064;SDS011;63646;49.110;9.140;2022-11-15T14:13:41;8.13;;;2.47;;
75064;SDS011;63646;49.110;9.140;2022-11-15T14:16:14;10.93;;;2.70;;
75064;SDS011;63646;49.110;9.140;2022-11-15T14:18:46;7.10;;;2.65;;
75064;SDS011;63646;49.110;9.140;2022-11-15T14:21:17;7.28;;;2.55;;
75064;SDS011;63646;49.110;9.140;2022-11-15T14:23:43;7.35;;;3.08;;
75064;SDS011;63646;49.110;9.140;2022-11-15T14:26:26;9.65;;;2.67;;
75064;SDS011;63646;49.110;9.140;2022-11-15T14:28:56;6.43;;;2.50;;
75064;SDS011;63646;49.110;9.140;2022-11-15T14:31:21;6.22;;;2.80;;
75064;SDS011;63646;49.110;9.140;2022-11-15T14:33:47;7.03;;;3.35;;
75064;SDS011;63646;49.110;9.140;2022-11-15T14:36:20;6.32;;;2.42;;
75064;SDS011;63646;49.110;9.140;2022-11-15T14:38:46;7.35;;;2.80;;
75064;SDS011;63646;49.110;9.140;2022-11-15T14:41:22;5.05;;;2.47;;
75064;SDS011;63646;49.110;9.140;2022-11-15T14:43:50;6.85;;;2.40;;
75064;SDS011;63646;49.110;9.140;2022-11-15T14:46:16;6.93;;;2.55;;
75064;SDS011;63646;49.110;9.140;2022-11-15T14:48:41;4.03;;;2.25;;
75064;SDS011;63646;49.110;9.140;2022-11-15T14:51:13;4.93;;;2.13;;
75064;SDS011;63646;49.110;9.140;2022-11-15T14:53:42;6.38;;;2.65;;
75064;SDS011;63646;49.110;9.140;2022-11-15T14:56:09;4.97;;;2.63;;
75064;SDS011;63646;49.110;9.140;2022-11-15T14:58:35;3.65;;;2.10;;
75064;SDS011;63646;49.110;9.140;2022-11-15T15:01:02;8.90;;;2.80;;
75064;SDS011;63646;49.110;9.140;2022-11-15T15:03:48;16.02;;;3.20;;
75064;SDS011;63646;49.110;9.140;2022-11-15T15:06:13;6.25;;;2.72;;
75064;SDS011;63646;49.110;9.140;2022-11-15T15:08:39;5.53;;;2.42;;
75064;SDS011;63646;49.110;9.140;2022-11-15T15:11:10;9.55;;;2.70;;
75064;SDS011;63646;49.110;9.140;2022-11-15T15:13:41;8.90;;;2.92;;
75064;SDS011;63646;49.110;9.140;2022-11-15T15:16:06;6.78;;;2.60;;
75064;SDS011;63646;49.110;9.140;2022-11-15T15:18:32;4.50;;;2.20;;
75064;SDS011;63646;49.110;9.140;2022-11-15T15:20:58;4.00;;;2.95;;
75064;SDS011;63646;49.110;9.140;2022-11-15T15:23:27;6.65;;;2.38;;
75064;SDS011;63646;49.110;9.140;2022-11-15T15:25:55;4.65;;;2.30;;
75064;SDS011;63646;49.110;9.140;2022-11-15T15:28:21;5.60;;;2.63;;
75064;SDS011;63646;49.110;9.140;2022-11-15T15:30:47;7.32;;;2.47;;
75064;SDS011;63646;49.110;9.140;2022-11-15T15:33:12;7.70;;;2.22;;
75064;SDS011;63646;49.110;9.140;2022-11-15T15:35:37;4.70;;;2.40;;
75064;SDS011;63646;49.110;9.140;2022-11-15T15:38:03;7.45;;;2.70;;
75064;SDS011;63646;49.110;9.140;2022-11-15T15:40:29;5.75;;;2.70;;
75064;SDS011;63646;49.110;9.140;2022-11-15T15:42:56;8.52;;;2.83;;
75064;SDS011;63646;49.110;9.140;2022-11-15T15:45:21;11.20;;;2.88;;
75064;SDS011;63646;49.110;9.140;2022-11-15T15:47:47;7.57;;;2.33;;
75064;SDS011;63646;49.110;9.140;2022-11-15T15:50:20;8.60;;;2.47;;
75064;SDS011;63646;49.110;9.140;2022-11-15T15:52:56;10.52;;;3.15;;
75064;SDS011;63646;49.110;9.140;2022-11-15T15:55:23;9.68;;;2.92;;
75064;SDS011;63646;49.110;9.140;2022-11-15T15:57:49;9.68;;;2.92;;
75064;SDS011;63646;49.110;9.140;2022-11-15T16:00:15;9.20;;;2.55;;
75064;SDS011;63646;49.110;9.140;2022-11-15T16:02:42;8.50;;;2.90;;
75064;SDS011;63646;49.110;9.140;2022-11-15T16:05:08;8.32;;;2.75;;
75064;SDS011;63646;49.110;9.140;2022-11-15T16:07:35;8.70;;;2.55;;
75064;SDS011;63646;49.110;9.140;2022-11-15T16:10:01;10.05;;;3.00;;
75064;SDS011;63646;49.110;9.140;2022-11-15T16:14:53;10.97;;;2.53;;
75064;SDS011;63646;49.110;9.140;2022-11-15T16:17:19;10.10;;;2.60;;
75064;SDS011;63646;49.110;9.140;2022-11-15T16:19:46;10.43;;;3.40;;
75064;SDS011;63646;49.110;9.140;2022-11-15T16:22:11;11.35;;;2.58;;
75064;SDS011;63646;49.110;9.140;2022-11-15T16:24:37;7.75;;;2.83;;
75064;SDS011;63646;49.110;9.140;2022-11-15T16:27:02;12.02;;;3.10;;
75064;SDS011;63646;49.110;9.140;2022-11-15T16:29:28;9.57;;;2.78;;
75064;SDS011;63646;49.110;9.140;2022-11-15T16:31:53;10.63;;;2.65;;
75064;SDS011;63646;49.110;9.140;2022-11-15T16:34:19;12.80;;;3.38;;
75064;SDS011;63646;49.110;9.140;2022-11-15T16:36:44;12.07;;;2.50;;
75064;SDS011;63646;49.110;9.140;2022-11-15T16:39:13;8.43;;;2.50;;
75064;SDS011;63646;49.110;9.140;2022-11-15T16:41:40;6.88;;;2.63;;
75064;SDS011;63646;49.110;9.140;2022-11-15T16:44:08;13.35;;;2.78;;
75064;SDS011;63646;49.110;9.140;2022-11-15T16:46:33;11.65;;;2.53;;
75064;SDS011;63646;49.110;9.140;2022-11-15T16:48:59;7.80;;;2.33;;
75064;SDS011;63646;49.110;9.140;2022-11-15T16:51:24;7.25;;;2.58;;
75064;SDS011;63646;49.110;9.140;2022-11-15T16:53:50;10.20;;;2.30;;
75064;SDS011;63646;49.110;9.140;2022-11-15T16:56:18;11.30;;;2.35;;
75064;SDS011;63646;49.110;9.140;2022-11-15T16:58:45;10.82;;;2.60;;
75064;SDS011;63646;49.110;9.140;2022-11-15T17:01:15;7.28;;;2.85;;
75064;SDS011;63646;49.110;9.140;2022-11-15T17:03:43;8.63;;;2.55;;
75064;SDS011;63646;49.110;9.140;2022-11-15T17:06:08;9.52;;;2.95;;
75064;SDS011;63646;49.110;9.140;2022-11-15T17:08:36;11.63;;;2.92;;
75064;SDS011;63646;49.110;9.140;2022-11-15T17:11:04;5.90;;;2.30;;
75064;SDS011;63646;49.110;9.140;2022-11-15T17:13:30;12.38;;;2.88;;
75064;SDS011;63646;49.110;9.140;2022-11-15T17:16:07;12.65;;;2.83;;
75064;SDS011;63646;49.110;9.140;2022-11-15T17:18:34;9.50;;;2.80;;
75064;SDS011;63646;49.110;9.140;2022-11-15T17:21:07;13.23;;;2.83;;
75064;SDS011;63646;49.110;9.140;2022-11-15T17:23:37;11.95;;;2.80;;
75064;SDS011;63646;49.110;9.140;2022-11-15T17:26:03;18.58;;;3.30;;
75064;SDS011;63646;49.110;9.140;2022-11-15T17:28:32;11.68;;;2.85;;
75064;SDS011;63646;49.110;9.140;2022-11-15T17:30:58;10.05;;;3.00;;
75064;SDS011;63646;49.110;9.140;2022-11-15T17:33:24;8.30;;;2.85;;
75064;SDS011;63646;49.110;9.140;2022-11-15T17:35:57;14.77;;;2.90;;